sensor_id;sensor_type;location;lat;lon;timestamp;pressure;altitude;pressure_sealevel;temperature;humidity
72548;BME280;60570;50.848;6.776;2024-03-06T00:00:53;100638.78;;;10.88;69.90
72548;BME280;60570;50.848;6.776;2024-03-06T00:01:54;100640.72;;;10.87;69.91
72548;BME280;60570;50.848;6.776;2024-03-06T00:02:56;100643.50;;;10.87;69.68
72548;BME280;60570;50.848;6.776;2024-03-06T00:03:58;100641.88;;;10.86;69.85
72548;BME280;60570;50.848;6.776;2024-03-06T00:05:00;100646.63;;;10.86;69.50
72548;BME280;60570;50.848;6.776;2024-03-06T00:06:00;100644.66;;;10.86;69.87
72548;BME280;60570;50.848;6.776;2024-03-06T00:07:02;100644.66;;;10.86;69.85
72548;BME280;60570;50.848;6.776;2024-03-06T00:08:03;100649.41;;;10.86;69.64
72548;BME280;60570;50.848;6.776;2024-03-06T00:09:05;100649.41;;;10.86;69.77
72548;BME280;60570;50.848;6.776;2024-03-06T00:10:06;100652.19;;;10.86;69.94
72548;BME280;60570;50.848;6.776;2024-03-06T00:11:08;100663.28;;;10.86;70.06
72548;BME280;60570;50.848;6.776;2024-03-06T00:12:09;100656.91;;;10.85;69.98
72548;BME280;60570;50.848;6.776;2024-03-06T00:13:11;100656.09;;;10.84;70.04
72548;BME280;60570;50.848;6.776;2024-03-06T00:14:11;100661.34;;;10.86;69.85
72548;BME280;60570;50.848;6.776;2024-03-06T00:15:13;100661.66;;;10.84;69.89
72548;BME280;60570;50.848;6.776;2024-03-06T00:16:14;100663.63;;;10.84;69.81
72548;BME280;60570;50.848;6.776;2024-03-06T00:17:16;100662.47;;;10.85;69.66
72548;BME280;60570;50.848;6.776;2024-03-06T00:18:17;100667.22;;;10.84;69.96
72548;BME280;60570;50.848;6.776;2024-03-06T00:19:20;100665.59;;;10.83;69.55
72548;BME280;60570;50.848;6.776;2024-03-06T00:20:21;100665.59;;;10.83;69.77
72548;BME280;60570;50.848;6.776;2024-03-06T00:21:22;100669.19;;;10.84;69.54
72548;BME280;60570;50.848;6.776;2024-03-06T00:22:23;100671.16;;;10.83;69.79
72548;BME280;60570;50.848;6.776;2024-03-06T00:23:24;100675.06;;;10.82;69.88
72548;BME280;60570;50.848;6.776;2024-03-06T00:24:26;100676.72;;;10.83;69.66
72548;BME280;60570;50.848;6.776;2024-03-06T00:25:27;100669.50;;;10.82;69.63
72548;BME280;60570;50.848;6.776;2024-03-06T00:26:28;100676.22;;;10.81;70.04
72548;BME280;60570;50.848;6.776;2024-03-06T00:27:29;100676.22;;;10.81;69.77
72548;BME280;60570;50.848;6.776;2024-03-06T00:28:31;100684.22;;;10.83;69.76
72548;BME280;60570;50.848;6.776;2024-03-06T00:29:32;100680.63;;;10.82;69.76
72548;BME280;60570;50.848;6.776;2024-03-06T00:30:33;100686.53;;;10.81;70.07
72548;BME280;60570;50.848;6.776;2024-03-06T00:31:34;100684.91;;;10.80;69.80
72548;BME280;60570;50.848;6.776;2024-03-06T00:32:36;100688.47;;;10.80;69.86
72548;BME280;60570;50.848;6.776;2024-03-06T00:33:36;100690.47;;;10.80;70.04
72548;BME280;60570;50.848;6.776;2024-03-06T00:34:40;100691.59;;;10.79;69.94
72548;BME280;60570;50.848;6.776;2024-03-06T00:35:40;100693.53;;;10.78;69.66
72548;BME280;60570;50.848;6.776;2024-03-06T00:36:43;100694.72;;;10.77;70.12
72548;BME280;60570;50.848;6.776;2024-03-06T00:37:44;100692.75;;;10.78;69.72
72548;BME280;60570;50.848;6.776;2024-03-06T00:38:45;100694.72;;;10.77;69.64
72548;BME280;60570;50.848;6.776;2024-03-06T00:39:46;100702.22;;;10.77;69.68
72548;BME280;60570;50.848;6.776;2024-03-06T00:40:48;100694.72;;;10.77;69.44
72548;BME280;60570;50.848;6.776;2024-03-06T00:41:49;100699.44;;;10.77;69.88
72548;BME280;60570;50.848;6.776;2024-03-06T00:42:50;100693.06;;;10.76;69.50
72548;BME280;60570;50.848;6.776;2024-03-06T00:43:51;100697.81;;;10.76;69.84
72548;BME280;60570;50.848;6.776;2024-03-06T00:44:53;100698.63;;;10.76;69.66
72548;BME280;60570;50.848;6.776;2024-03-06T00:45:53;100698.63;;;10.76;69.81
72548;BME280;60570;50.848;6.776;2024-03-06T00:46:55;100698.13;;;10.74;69.85
72548;BME280;60570;50.848;6.776;2024-03-06T00:47:56;100700.59;;;10.76;69.72
72548;BME280;60570;50.848;6.776;2024-03-06T00:48:57;100693.41;;;10.75;69.95
72548;BME280;60570;50.848;6.776;2024-03-06T00:49:59;100701.75;;;10.75;69.83
72548;BME280;60570;50.848;6.776;2024-03-06T00:51:01;100691.78;;;10.74;69.48
72548;BME280;60570;50.848;6.776;2024-03-06T00:52:02;100693.41;;;10.75;69.78
72548;BME280;60570;50.848;6.776;2024-03-06T00:53:06;100700.91;;;10.74;69.89
72548;BME280;60570;50.848;6.776;2024-03-06T00:54:06;100704.03;;;10.73;69.69
72548;BME280;60570;50.848;6.776;2024-03-06T00:55:08;100698.47;;;10.73;69.51
72548;BME280;60570;50.848;6.776;2024-03-06T00:56:09;100698.47;;;10.73;69.59
72548;BME280;60570;50.848;6.776;2024-03-06T00:57:11;100701.25;;;10.73;69.91
72548;BME280;60570;50.848;6.776;2024-03-06T00:58:12;100697.69;;;10.72;69.73
72548;BME280;60570;50.848;6.776;2024-03-06T00:59:13;100702.41;;;10.72;69.54
72548;BME280;60570;50.848;6.776;2024-03-06T01:00:15;100711.09;;;10.70;69.72
72548;BME280;60570;50.848;6.776;2024-03-06T01:01:16;100706.31;;;10.71;69.84
72548;BME280;60570;50.848;6.776;2024-03-06T01:02:19;100709.44;;;10.69;69.47
72548;BME280;60570;50.848;6.776;2024-03-06T01:03:19;100714.19;;;10.69;69.94
72548;BME280;60570;50.848;6.776;2024-03-06T01:04:20;100709.44;;;10.69;69.74
72548;BME280;60570;50.848;6.776;2024-03-06T01:05:23;100712.22;;;10.69;69.70
72548;BME280;60570;50.848;6.776;2024-03-06T01:06:24;100712.22;;;10.69;69.58
72548;BME280;60570;50.848;6.776;2024-03-06T01:07:26;100716.16;;;10.68;69.84
72548;BME280;60570;50.848;6.776;2024-03-06T01:08:26;100711.72;;;10.67;69.80
72548;BME280;60570;50.848;6.776;2024-03-06T01:09:28;100713.69;;;10.67;69.97
72548;BME280;60570;50.848;6.776;2024-03-06T01:10:29;100718.44;;;10.66;69.76
72548;BME280;60570;50.848;6.776;2024-03-06T01:11:31;100709.28;;;10.66;69.65
72548;BME280;60570;50.848;6.776;2024-03-06T01:12:32;100720.41;;;10.66;69.84
72548;BME280;60570;50.848;6.776;2024-03-06T01:13:34;100714.03;;;10.65;70.04
72548;BME280;60570;50.848;6.776;2024-03-06T01:14:34;100717.97;;;10.64;69.83
72548;BME280;60570;50.848;6.776;2024-03-06T01:15:36;100715.97;;;10.65;69.89
72548;BME280;60570;50.848;6.776;2024-03-06T01:16:37;100719.09;;;10.63;69.82
72548;BME280;60570;50.848;6.776;2024-03-06T01:17:38;100721.88;;;10.63;69.33
72548;BME280;60570;50.848;6.776;2024-03-06T01:18:39;100715.50;;;10.63;69.73
72548;BME280;60570;50.848;6.776;2024-03-06T01:19:41;100721.38;;;10.61;69.94
72548;BME280;60570;50.848;6.776;2024-03-06T01:20:45;100724.66;;;10.63;69.57
72548;BME280;60570;50.848;6.776;2024-03-06T01:21:46;100721.03;;;10.63;69.76
72548;BME280;60570;50.848;6.776;2024-03-06T01:22:48;100729.72;;;10.61;69.75
72548;BME280;60570;50.848;6.776;2024-03-06T01:23:50;100720.56;;;10.61;69.67
72548;BME280;60570;50.848;6.776;2024-03-06T01:24:51;100721.72;;;10.60;69.74
72548;BME280;60570;50.848;6.776;2024-03-06T01:25:52;100721.72;;;10.60;69.50
72548;BME280;60570;50.848;6.776;2024-03-06T01:26:53;100726.47;;;10.59;69.48
72548;BME280;60570;50.848;6.776;2024-03-06T01:27:55;100725.63;;;10.59;69.79
72548;BME280;60570;50.848;6.776;2024-03-06T01:28:55;100730.06;;;10.60;69.82
72548;BME280;60570;50.848;6.776;2024-03-06T01:29:57;100730.06;;;10.60;69.82
72548;BME280;60570;50.848;6.776;2024-03-06T01:30:58;100732.00;;;10.59;69.43
72548;BME280;60570;50.848;6.776;2024-03-06T01:31:59;100730.88;;;10.60;69.39
72548;BME280;60570;50.848;6.776;2024-03-06T01:33:01;100731.19;;;10.59;69.39
72548;BME280;60570;50.848;6.776;2024-03-06T01:34:01;100735.94;;;10.58;69.46
72548;BME280;60570;50.848;6.776;2024-03-06T01:35:04;100737.56;;;10.59;69.35
72548;BME280;60570;50.848;6.776;2024-03-06T01:36:06;100733.19;;;10.58;69.54
72548;BME280;60570;50.848;6.776;2024-03-06T01:37:08;100732.00;;;10.59;69.48
72548;BME280;60570;50.848;6.776;2024-03-06T01:38:09;100732.00;;;10.59;69.70
72548;BME280;60570;50.848;6.776;2024-03-06T01:39:10;100727.63;;;10.58;69.20
72548;BME280;60570;50.848;6.776;2024-03-06T01:40:12;100730.41;;;10.58;69.24
72548;BME280;60570;50.848;6.776;2024-03-06T01:41:14;100735.94;;;10.58;69.40
72548;BME280;60570;50.848;6.776;2024-03-06T01:42:17;100735.13;;;10.58;69.35
72548;BME280;60570;50.848;6.776;2024-03-06T01:43:19;100733.50;;;10.57;69.65
72548;BME280;60570;50.848;6.776;2024-03-06T01:44:22;100739.84;;;10.57;69.58
72548;BME280;60570;50.848;6.776;2024-03-06T01:45:22;100732.69;;;10.56;69.36
72548;BME280;60570;50.848;6.776;2024-03-06T01:46:24;100737.41;;;10.56;69.43
72548;BME280;60570;50.848;6.776;2024-03-06T01:47:25;100736.28;;;10.57;69.57
72548;BME280;60570;50.848;6.776;2024-03-06T01:48:27;100733.81;;;10.55;69.42
72548;BME280;60570;50.848;6.776;2024-03-06T01:49:30;100735.81;;;10.55;69.36
72548;BME280;60570;50.848;6.776;2024-03-06T01:50:31;100729.41;;;10.54;69.35
72548;BME280;60570;50.848;6.776;2024-03-06T01:51:35;100726.66;;;10.54;69.49
72548;BME280;60570;50.848;6.776;2024-03-06T01:52:35;100730.25;;;10.55;69.60
72548;BME280;60570;50.848;6.776;2024-03-06T01:53:38;100727.47;;;10.55;69.44
72548;BME280;60570;50.848;6.776;2024-03-06T01:54:39;100729.75;;;10.53;69.25
72548;BME280;60570;50.848;6.776;2024-03-06T01:55:41;100741.66;;;10.53;69.37
72548;BME280;60570;50.848;6.776;2024-03-06T01:56:45;100735.31;;;10.53;69.33
72548;BME280;60570;50.848;6.776;2024-03-06T01:57:47;100739.22;;;10.52;69.05
72548;BME280;60570;50.848;6.776;2024-03-06T01:58:48;100736.44;;;10.52;69.53
72548;BME280;60570;50.848;6.776;2024-03-06T01:59:50;100742.81;;;10.52;69.10
72548;BME280;60570;50.848;6.776;2024-03-06T02:00:52;100735.63;;;10.51;69.30
72548;BME280;60570;50.848;6.776;2024-03-06T02:01:54;100740.38;;;10.51;69.40
72548;BME280;60570;50.848;6.776;2024-03-06T02:02:54;100734.81;;;10.51;69.53
72548;BME280;60570;50.848;6.776;2024-03-06T02:03:55;100745.13;;;10.50;68.96
72548;BME280;60570;50.848;6.776;2024-03-06T02:04:57;100731.22;;;10.50;69.24
72548;BME280;60570;50.848;6.776;2024-03-06T02:06:02;100738.72;;;10.50;69.51
72548;BME280;60570;50.848;6.776;2024-03-06T02:07:08;100741.03;;;10.48;69.34
72548;BME280;60570;50.848;6.776;2024-03-06T02:08:09;100734.34;;;10.49;68.99
72548;BME280;60570;50.848;6.776;2024-03-06T02:09:10;100737.13;;;10.49;69.04
72548;BME280;60570;50.848;6.776;2024-03-06T02:10:14;100738.25;;;10.48;69.16
72548;BME280;60570;50.848;6.776;2024-03-06T02:11:15;100733.84;;;10.47;69.37
72548;BME280;60570;50.848;6.776;2024-03-06T02:12:17;100744.63;;;10.48;69.30
72548;BME280;60570;50.848;6.776;2024-03-06T02:13:18;100731.88;;;10.47;69.32
72548;BME280;60570;50.848;6.776;2024-03-06T02:14:19;100738.59;;;10.46;69.47
72548;BME280;60570;50.848;6.776;2024-03-06T02:15:21;100737.75;;;10.46;68.98
72548;BME280;60570;50.848;6.776;2024-03-06T02:16:22;100736.94;;;10.45;68.91
72548;BME280;60570;50.848;6.776;2024-03-06T02:17:23;100740.88;;;10.44;69.17
72548;BME280;60570;50.848;6.776;2024-03-06T02:18:26;100738.09;;;10.44;69.11
72548;BME280;60570;50.848;6.776;2024-03-06T02:19:37;100742.81;;;10.44;69.03
72548;BME280;60570;50.848;6.776;2024-03-06T02:20:40;100740.88;;;10.44;69.27
72548;BME280;60570;50.848;6.776;2024-03-06T02:21:41;100742.81;;;10.44;69.25
72548;BME280;60570;50.848;6.776;2024-03-06T02:22:43;100745.59;;;10.44;68.94
72548;BME280;60570;50.848;6.776;2024-03-06T02:23:43;100747.59;;;10.43;69.28
72548;BME280;60570;50.848;6.776;2024-03-06T02:24:47;100750.38;;;10.43;69.02
72548;BME280;60570;50.848;6.776;2024-03-06T02:25:50;100747.09;;;10.41;69.25
72548;BME280;60570;50.848;6.776;2024-03-06T02:26:51;100743.16;;;10.42;69.34
72548;BME280;60570;50.848;6.776;2024-03-06T02:27:52;100741.06;;;10.39;69.06
72548;BME280;60570;50.848;6.776;2024-03-06T02:28:54;100750.19;;;10.40;69.51
72548;BME280;60570;50.848;6.776;2024-03-06T02:29:56;100749.38;;;10.39;68.83
72548;BME280;60570;50.848;6.776;2024-03-06T02:30:56;100750.19;;;10.40;69.30
72548;BME280;60570;50.848;6.776;2024-03-06T02:31:59;100748.56;;;10.39;69.05
72548;BME280;60570;50.848;6.776;2024-03-06T02:33:02;100753.28;;;10.38;69.24
72548;BME280;60570;50.848;6.776;2024-03-06T02:34:04;100738.56;;;10.38;69.14
72548;BME280;60570;50.848;6.776;2024-03-06T02:35:07;100741.69;;;10.36;69.21
72548;BME280;60570;50.848;6.776;2024-03-06T02:36:11;100740.88;;;10.36;69.01
72548;BME280;60570;50.848;6.776;2024-03-06T02:37:12;100740.56;;;10.37;69.18
72548;BME280;60570;50.848;6.776;2024-03-06T02:38:12;100739.41;;;10.38;69.16
72548;BME280;60570;50.848;6.776;2024-03-06T02:39:14;100737.78;;;10.37;68.92
72548;BME280;60570;50.848;6.776;2024-03-06T02:40:15;100743.66;;;10.36;69.14
72548;BME280;60570;50.848;6.776;2024-03-06T02:41:17;100729.28;;;10.34;69.13
72548;BME280;60570;50.848;6.776;2024-03-06T02:42:18;100734.81;;;10.34;68.94
72548;BME280;60570;50.848;6.776;2024-03-06T02:43:19;100737.59;;;10.34;69.15
72548;BME280;60570;50.848;6.776;2024-03-06T02:44:20;100734.03;;;10.33;69.00
72548;BME280;60570;50.848;6.776;2024-03-06T02:45:22;100738.44;;;10.34;68.73
72548;BME280;60570;50.848;6.776;2024-03-06T02:46:23;100736.81;;;10.33;69.37
72548;BME280;60570;50.848;6.776;2024-03-06T02:47:24;100733.53;;;10.31;69.16
72548;BME280;60570;50.848;6.776;2024-03-06T02:48:25;100734.34;;;10.32;69.36
72548;BME280;60570;50.848;6.776;2024-03-06T02:49:27;100741.88;;;10.31;69.10
72548;BME280;60570;50.848;6.776;2024-03-06T02:50:27;100733.53;;;10.31;68.96
72548;BME280;60570;50.848;6.776;2024-03-06T02:51:30;100740.22;;;10.30;69.07
72548;BME280;60570;50.848;6.776;2024-03-06T02:52:31;100734.34;;;10.32;69.18
72548;BME280;60570;50.848;6.776;2024-03-06T02:53:32;100738.28;;;10.31;68.86
72548;BME280;60570;50.848;6.776;2024-03-06T02:54:33;100739.09;;;10.31;68.69
72548;BME280;60570;50.848;6.776;2024-03-06T02:55:34;100735.50;;;10.31;68.80
72548;BME280;60570;50.848;6.776;2024-03-06T02:56:36;100733.53;;;10.31;69.04
72548;BME280;60570;50.848;6.776;2024-03-06T02:57:37;100734.66;;;10.30;68.90
72548;BME280;60570;50.848;6.776;2024-03-06T02:58:38;100735.84;;;10.29;68.88
72548;BME280;60570;50.848;6.776;2024-03-06T02:59:39;100740.22;;;10.30;68.66
72548;BME280;60570;50.848;6.776;2024-03-06T03:00:40;100737.44;;;10.30;68.63
72548;BME280;60570;50.848;6.776;2024-03-06T03:01:42;100737.78;;;10.29;68.64
72548;BME280;60570;50.848;6.776;2024-03-06T03:02:43;100738.59;;;10.29;68.63
72548;BME280;60570;50.848;6.776;2024-03-06T03:03:44;100734.19;;;10.28;69.01
72548;BME280;60570;50.848;6.776;2024-03-06T03:04:47;100735.84;;;10.29;69.08
72548;BME280;60570;50.848;6.776;2024-03-06T03:05:49;100738.59;;;10.29;68.43
72548;BME280;60570;50.848;6.776;2024-03-06T03:06:52;100742.50;;;10.28;68.85
72548;BME280;60570;50.848;6.776;2024-03-06T03:07:53;100739.72;;;10.28;68.64
72548;BME280;60570;50.848;6.776;2024-03-06T03:08:54;100741.72;;;10.28;68.54
72548;BME280;60570;50.848;6.776;2024-03-06T03:09:56;100738.13;;;10.27;68.91
72548;BME280;60570;50.848;6.776;2024-03-06T03:10:57;100741.38;;;10.29;68.79
72548;BME280;60570;50.848;6.776;2024-03-06T03:11:57;100740.91;;;10.27;68.79
72548;BME280;60570;50.848;6.776;2024-03-06T03:12:59;100731.75;;;10.27;68.58
72548;BME280;60570;50.848;6.776;2024-03-06T03:14:00;100735.69;;;10.26;68.45
72548;BME280;60570;50.848;6.776;2024-03-06T03:15:02;100740.41;;;10.25;68.79
72548;BME280;60570;50.848;6.776;2024-03-06T03:16:03;100743.19;;;10.25;68.70
72548;BME280;60570;50.848;6.776;2024-03-06T03:17:05;100731.25;;;10.25;68.35
72548;BME280;60570;50.848;6.776;2024-03-06T03:18:06;100737.13;;;10.23;68.42
72548;BME280;60570;50.848;6.776;2024-03-06T03:19:07;100735.19;;;10.24;68.57
72548;BME280;60570;50.848;6.776;2024-03-06T03:20:09;100739.09;;;10.23;68.80
72548;BME280;60570;50.848;6.776;2024-03-06T03:21:12;100737.47;;;10.22;68.77
72548;BME280;60570;50.848;6.776;2024-03-06T03:22:15;100735.81;;;10.21;68.77
72548;BME280;60570;50.848;6.776;2024-03-06T03:23:16;100740.25;;;10.22;68.36
72548;BME280;60570;50.848;6.776;2024-03-06T03:24:22;100746.94;;;10.21;68.58
72548;BME280;60570;50.848;6.776;2024-03-06T03:25:26;100744.16;;;10.21;68.91
72548;BME280;60570;50.848;6.776;2024-03-06T03:26:26;100744.50;;;10.19;68.87
72548;BME280;60570;50.848;6.776;2024-03-06T03:27:27;100750.03;;;10.19;68.69
72548;BME280;60570;50.848;6.776;2024-03-06T03:28:29;100750.88;;;10.20;68.56
72548;BME280;60570;50.848;6.776;2024-03-06T03:29:30;100748.38;;;10.18;68.41
72548;BME280;60570;50.848;6.776;2024-03-06T03:30:31;100753.63;;;10.20;68.69
72548;BME280;60570;50.848;6.776;2024-03-06T03:31:32;100755.09;;;10.17;68.61
72548;BME280;60570;50.848;6.776;2024-03-06T03:32:37;100754.75;;;10.19;68.38
72548;BME280;60570;50.848;6.776;2024-03-06T03:33:38;100754.28;;;10.17;68.73
72548;BME280;60570;50.848;6.776;2024-03-06T03:34:40;100760.16;;;10.15;68.47
72548;BME280;60570;50.848;6.776;2024-03-06T03:35:41;100754.59;;;10.15;68.51
72548;BME280;60570;50.848;6.776;2024-03-06T03:36:43;100759.34;;;10.15;68.43
72548;BME280;60570;50.848;6.776;2024-03-06T03:37:45;100764.09;;;10.14;68.36
72548;BME280;60570;50.848;6.776;2024-03-06T03:38:46;100764.09;;;10.14;68.75
72548;BME280;60570;50.848;6.776;2024-03-06T03:39:47;100763.28;;;10.14;68.65
72548;BME280;60570;50.848;6.776;2024-03-06T03:40:49;100773.53;;;10.13;68.63
72548;BME280;60570;50.848;6.776;2024-03-06T03:41:50;100771.94;;;10.12;68.57
72548;BME280;60570;50.848;6.776;2024-03-06T03:42:52;100769.94;;;10.13;68.33
72548;BME280;60570;50.848;6.776;2024-03-06T03:43:53;100774.72;;;10.12;68.66
72548;BME280;60570;50.848;6.776;2024-03-06T03:44:53;100768.66;;;10.10;68.46
72548;BME280;60570;50.848;6.776;2024-03-06T03:45:55;100769.75;;;10.09;68.33
72548;BME280;60570;50.848;6.776;2024-03-06T03:46:56;100778.94;;;10.10;68.72
72548;BME280;60570;50.848;6.776;2024-03-06T03:47:57;100781.38;;;10.11;68.30
72548;BME280;60570;50.848;6.776;2024-03-06T03:48:58;100786.09;;;10.11;68.70
72548;BME280;60570;50.848;6.776;2024-03-06T03:49:59;100778.94;;;10.10;68.72
72548;BME280;60570;50.848;6.776;2024-03-06T03:51:01;100789.19;;;10.09;68.32
72548;BME280;60570;50.848;6.776;2024-03-06T03:52:03;100785.59;;;10.09;68.53
72548;BME280;60570;50.848;6.776;2024-03-06T03:53:06;100787.56;;;10.08;68.68
72548;BME280;60570;50.848;6.776;2024-03-06T03:54:06;100793.91;;;10.09;68.83
72548;BME280;60570;50.848;6.776;2024-03-06T03:55:07;100796.19;;;10.07;68.68
72548;BME280;60570;50.848;6.776;2024-03-06T03:56:09;100799.47;;;10.09;68.67
72548;BME280;60570;50.848;6.776;2024-03-06T03:57:10;100795.41;;;10.06;68.63
72548;BME280;60570;50.848;6.776;2024-03-06T03:58:11;100797.34;;;10.06;68.66
72548;BME280;60570;50.848;6.776;2024-03-06T03:59:12;100805.69;;;10.06;68.83
72548;BME280;60570;50.848;6.776;2024-03-06T04:00:14;100811.22;;;10.06;68.57
72548;BME280;60570;50.848;6.776;2024-03-06T04:01:15;100806.81;;;10.05;68.38
72548;BME280;60570;50.848;6.776;2024-03-06T04:02:17;100806.00;;;10.04;68.37
72548;BME280;60570;50.848;6.776;2024-03-06T04:03:18;100812.34;;;10.05;68.64
72548;BME280;60570;50.848;6.776;2024-03-06T04:04:19;100806.00;;;10.04;68.74
72548;BME280;60570;50.848;6.776;2024-03-06T04:05:22;100812.34;;;10.05;68.86
72548;BME280;60570;50.848;6.776;2024-03-06T04:06:24;100809.59;;;10.05;68.72
72548;BME280;60570;50.848;6.776;2024-03-06T04:07:25;100816.28;;;10.04;68.87
72548;BME280;60570;50.848;6.776;2024-03-06T04:08:28;100817.41;;;10.03;68.58
72548;BME280;60570;50.848;6.776;2024-03-06T04:09:29;100824.63;;;10.04;68.54
72548;BME280;60570;50.848;6.776;2024-03-06T04:10:31;100816.63;;;10.02;68.85
72548;BME280;60570;50.848;6.776;2024-03-06T04:11:32;100818.25;;;10.03;68.27
72548;BME280;60570;50.848;6.776;2024-03-06T04:12:36;100811.88;;;10.03;68.47
72548;BME280;60570;50.848;6.776;2024-03-06T04:13:38;100813.03;;;10.02;68.52
72548;BME280;60570;50.848;6.776;2024-03-06T04:14:39;100809.91;;;10.03;68.44
72548;BME280;60570;50.848;6.776;2024-03-06T04:15:40;100821.84;;;10.04;68.49
72548;BME280;60570;50.848;6.776;2024-03-06T04:16:42;100815.47;;;10.03;68.31
72548;BME280;60570;50.848;6.776;2024-03-06T04:17:42;100815.47;;;10.03;68.35
72548;BME280;60570;50.848;6.776;2024-03-06T04:18:44;100817.41;;;10.03;68.63
72548;BME280;60570;50.848;6.776;2024-03-06T04:19:46;100814.63;;;10.03;68.59
72548;BME280;60570;50.848;6.776;2024-03-06T04:20:48;100821.34;;;10.02;68.60
72548;BME280;60570;50.848;6.776;2024-03-06T04:21:50;100818.56;;;10.02;68.62
72548;BME280;60570;50.848;6.776;2024-03-06T04:22:51;100813.84;;;10.02;68.75
72548;BME280;60570;50.848;6.776;2024-03-06T04:23:54;100813.84;;;10.02;68.50
72548;BME280;60570;50.848;6.776;2024-03-06T04:24:54;100807.81;;;10.00;68.70
72548;BME280;60570;50.848;6.776;2024-03-06T04:25:59;100819.72;;;10.01;68.25
72548;BME280;60570;50.848;6.776;2024-03-06T04:26:59;100821.69;;;10.00;68.25
72548;BME280;60570;50.848;6.776;2024-03-06T04:28:01;100820.03;;;9.99;68.24
72548;BME280;60570;50.848;6.776;2024-03-06T04:29:02;100824.78;;;9.99;68.32
72548;BME280;60570;50.848;6.776;2024-03-06T04:30:05;100819.22;;;9.99;68.17
72548;BME280;60570;50.848;6.776;2024-03-06T04:31:06;100822.81;;;9.99;68.20
72548;BME280;60570;50.848;6.776;2024-03-06T04:32:11;100819.22;;;9.99;68.46
72548;BME280;60570;50.848;6.776;2024-03-06T04:33:12;100819.22;;;9.99;68.42
72548;BME280;60570;50.848;6.776;2024-03-06T04:34:15;100813.69;;;9.99;68.32
72548;BME280;60570;50.848;6.776;2024-03-06T04:35:17;100825.56;;;9.99;68.35
72548;BME280;60570;50.848;6.776;2024-03-06T04:36:21;100821.19;;;9.98;68.08
72548;BME280;60570;50.848;6.776;2024-03-06T04:37:23;100819.22;;;9.99;68.39
72548;BME280;60570;50.848;6.776;2024-03-06T04:38:23;100823.97;;;9.98;68.20
72548;BME280;60570;50.848;6.776;2024-03-06T04:39:27;100823.13;;;9.98;68.27
72548;BME280;60570;50.848;6.776;2024-03-06T04:40:27;100822.31;;;9.97;68.02
72548;BME280;60570;50.848;6.776;2024-03-06T04:41:29;100825.91;;;9.98;68.09
72548;BME280;60570;50.848;6.776;2024-03-06T04:42:30;100837.00;;;9.98;67.99
72548;BME280;60570;50.848;6.776;2024-03-06T04:43:30;100840.94;;;9.97;68.19
72548;BME280;60570;50.848;6.776;2024-03-06T04:44:33;100838.66;;;9.99;68.36
72548;BME280;60570;50.848;6.776;2024-03-06T04:45:34;100843.72;;;9.97;68.28
72548;BME280;60570;50.848;6.776;2024-03-06T04:46:36;100840.94;;;9.97;67.98
72548;BME280;60570;50.848;6.776;2024-03-06T04:47:37;100845.34;;;9.98;68.08
72548;BME280;60570;50.848;6.776;2024-03-06T04:48:38;100843.38;;;9.98;68.15
72548;BME280;60570;50.848;6.776;2024-03-06T04:49:39;100845.34;;;9.98;68.36
72548;BME280;60570;50.848;6.776;2024-03-06T04:50:40;100848.09;;;9.98;68.11
72548;BME280;60570;50.848;6.776;2024-03-06T04:51:42;100844.84;;;9.95;68.04
72548;BME280;60570;50.848;6.776;2024-03-06T04:52:43;100849.56;;;9.95;68.21
72548;BME280;60570;50.848;6.776;2024-03-06T04:53:46;100855.13;;;9.95;68.13
72548;BME280;60570;50.848;6.776;2024-03-06T04:54:48;100849.88;;;9.93;68.41
72548;BME280;60570;50.848;6.776;2024-03-06T04:55:49;100850.72;;;9.94;68.30
72548;BME280;60570;50.848;6.776;2024-03-06T04:56:50;100855.44;;;9.93;68.30
72548;BME280;60570;50.848;6.776;2024-03-06T04:57:52;100855.44;;;9.93;68.23
72548;BME280;60570;50.848;6.776;2024-03-06T04:58:54;100856.25;;;9.94;68.17
72548;BME280;60570;50.848;6.776;2024-03-06T04:59:55;100852.16;;;9.91;68.48
72548;BME280;60570;50.848;6.776;2024-03-06T05:00:56;100855.44;;;9.93;68.32
72548;BME280;60570;50.848;6.776;2024-03-06T05:01:57;100853.81;;;9.92;68.00
72548;BME280;60570;50.848;6.776;2024-03-06T05:02:59;100851.03;;;9.92;68.31
72548;BME280;60570;50.848;6.776;2024-03-06T05:04:00;100849.41;;;9.91;68.27
72548;BME280;60570;50.848;6.776;2024-03-06T05:05:02;100855.78;;;9.92;67.94
72548;BME280;60570;50.848;6.776;2024-03-06T05:06:03;100852.16;;;9.91;67.89
72548;BME280;60570;50.848;6.776;2024-03-06T05:07:05;100853.00;;;9.92;68.35
72548;BME280;60570;50.848;6.776;2024-03-06T05:08:06;100851.34;;;9.91;68.36
72548;BME280;60570;50.848;6.776;2024-03-06T05:09:10;100850.22;;;9.92;68.15
72548;BME280;60570;50.848;6.776;2024-03-06T05:10:13;100854.94;;;9.91;68.00
72548;BME280;60570;50.848;6.776;2024-03-06T05:11:16;100861.31;;;9.92;68.06
72548;BME280;60570;50.848;6.776;2024-03-06T05:12:16;100853.31;;;9.90;68.47
72548;BME280;60570;50.848;6.776;2024-03-06T05:13:18;100873.25;;;9.92;68.02
72548;BME280;60570;50.848;6.776;2024-03-06T05:14:19;100869.16;;;9.90;68.02
72548;BME280;60570;50.848;6.776;2024-03-06T05:15:21;100868.00;;;9.91;68.37
72548;BME280;60570;50.848;6.776;2024-03-06T05:16:22;100859.66;;;9.91;68.03
72548;BME280;60570;50.848;6.776;2024-03-06T05:17:24;100862.44;;;9.91;68.04
72548;BME280;60570;50.848;6.776;2024-03-06T05:18:26;100864.44;;;9.90;67.92
72548;BME280;60570;50.848;6.776;2024-03-06T05:19:26;100863.28;;;9.91;67.92
72548;BME280;60570;50.848;6.776;2024-03-06T05:20:32;100871.59;;;9.91;68.28
72548;BME280;60570;50.848;6.776;2024-03-06T05:21:33;100866.38;;;9.90;67.96
72548;BME280;60570;50.848;6.776;2024-03-06T05:22:35;100860.00;;;9.89;68.13
72548;BME280;60570;50.848;6.776;2024-03-06T05:23:36;100867.50;;;9.89;68.00